Terminal Aerodrome Forecast
Issued by NWS Jackson, MS

Home | Current Version | Previous Version | Text Only | Print | Product List | Glossary On
Versions: 1 2 3 4 5 6 7 8 9 10 11 12 13 14 15 16 17 18 19 20 21 22 23 24 25
000
FTUS44 KMEG 252330
TAFTUP
TAF
KTUP 252330Z 2600/2624 17010KT P6SM BKN035
      TEMPO 2600/2602 BKN028
     FM260900 17010KT P6SM VCTS SCT025CB OVC035
      TEMPO 2610/2612 3SM TSRA BR BKN015CB OVC025
     FM261200 18010KT 5SM -RA BR OVC015
     FM261800 19012G18KT P6SM OVC025
     FM262200 19010KT P6SM BKN035=

USA.gov is the U.S. government's official web portal to all federal, state and local government web resources and services.